Palm Springs International Airport
KPSP : now visible

Airfield :











YOU CAN JOIN US ON...

 
LOGIN :

Register | Disclaimer

   EN    FR    IT 

 









Legend :    VFR   Marginal VFR   IFR   Intensive IFR   Very Intensive IFR
Visi :
Ceiling :
>= 8 km
>= 3000ft
5 to 8 km
1000 to 3000 ft
1500m to 5 km
500 to 1000 ft
800 to 1500m
200 to 500 ft
< 800m
< 200 ft
Symbols :   Thunderstorms  Fog  Heavy snow  Heavy precipitations  Wind > 20 kt






- Airport Elevation : 477 ft
- IATA code : PSP


KPSP - Palm Springs International

CURRENT METAR :
  • 250553Z AUTO 32015G21KT 10SM CLR 35/11 A2976 RMK AO2 SLP070 T03500111 10450 20350 53022

EXPIRED METARs :
  • 250453Z 32018G25KT 10SM CLR 36/12 A2974 RMK AO2 PK WND 32030/0417 SLP063 T03610117
  • 250353Z 32017G25KT 10SM CLR 38/13 A2971 RMK AO2 PK WND 30028/0330 SLP054 T03780133
  • 250253Z 33017G28KT 10SM CLR 39/13 A2969 RMK AO2 PK WND 32029/0219 SLP048 T03940133 53004
  • 250153Z 33015G25KT 10SM CLR 41/13 A2968 RMK AO2 PK WND 33027/0126 SLP043 T04110133

TAF KPSP
Valid from the 25 at 06:00 until the 26 at 06:00 UTC


250520Z 2506/2606 32015G25KT P6SM FEW040 FEW200
FM250700 32010KT P6SM FEW200
FM250900 VRB05KT P6SM SCT150
FM252200 33015G25KT P6SM SCT150
KZLA FIR / North America



MET'MAP, your aeronautical weather chart ! - Copyright ORBIFLY December 2007 - Disclaimer

ORBIFLY MET'MAP TEAM :

Programming & Development : Alexandra Zaïnal
Original concept : Baudouin d'Aumeries
Technical & hardware support : Manuel Goepfert
Assistance : Marc-Olivier Méhu




SOURCES & CREDITS :

   NOAA       Earth
Advisory